createdAt,value
2019-03-30T00:00:39.201Z,1021.51
2019-03-30T00:01:39.367Z,1021.49
2019-03-30T00:02:39.325Z,1021.47
2019-03-30T00:03:39.381Z,1021.48
2019-03-30T00:04:39.442Z,1021.50
2019-03-30T00:05:39.507Z,1021.51
2019-03-30T00:06:39.573Z,1021.47
2019-03-30T00:07:39.637Z,1021.48
2019-03-30T00:08:39.693Z,1021.45
2019-03-30T00:09:39.754Z,1021.43
2019-03-30T00:10:39.814Z,1021.43
2019-03-30T00:11:39.887Z,1021.43
2019-03-30T00:12:39.946Z,1021.41
2019-03-30T00:13:39.997Z,1021.38
2019-03-30T00:14:40.061Z,1021.38
2019-03-30T00:15:40.127Z,1021.40
2019-03-30T00:16:40.212Z,1021.36
2019-03-30T00:17:40.251Z,1021.35
2019-03-30T00:18:41.565Z,1021.38
2019-03-30T00:19:40.371Z,1021.36
2019-03-30T00:20:40.434Z,1021.39
2019-03-30T00:21:40.507Z,1021.35
2019-03-30T00:22:40.566Z,1021.30
2019-03-30T00:23:40.620Z,1021.32
2019-03-30T00:24:40.683Z,1021.32
2019-03-30T00:25:40.742Z,1021.36
2019-03-30T00:26:40.809Z,1021.32
2019-03-30T00:27:40.877Z,1021.34
2019-03-30T00:28:40.926Z,1021.32
2019-03-30T00:29:40.990Z,1021.35
2019-03-30T00:30:41.051Z,1021.33
2019-03-30T00:31:41.450Z,1021.33
2019-03-30T00:32:41.174Z,1021.33
2019-03-30T00:33:41.239Z,1021.31
2019-03-30T00:34:41.298Z,1021.27
2019-03-30T00:35:41.363Z,1021.26
2019-03-30T00:36:41.427Z,1021.26
2019-03-30T00:37:41.507Z,1021.25
2019-03-30T00:38:41.543Z,1021.25
2019-03-30T00:39:41.608Z,1021.23
2019-03-30T00:40:41.671Z,1021.22
2019-03-30T00:41:41.730Z,1021.22
2019-03-30T00:42:41.798Z,1021.25
2019-03-30T00:43:41.858Z,1021.24
2019-03-30T00:44:41.914Z,1021.23
2019-03-30T00:45:41.975Z,1021.21
2019-03-30T00:46:42.040Z,1021.18
2019-03-30T00:47:42.099Z,1021.18
2019-03-30T00:48:42.295Z,1021.22
2019-03-30T00:49:48.989Z,1021.21
2019-03-30T00:50:42.283Z,1021.15
2019-03-30T00:51:42.346Z,1021.18
2019-03-30T00:52:42.407Z,1021.19
2019-03-30T00:53:42.475Z,1021.17
2019-03-30T00:54:42.541Z,1021.15
2019-03-30T00:55:42.590Z,1021.13
2019-03-30T00:56:42.658Z,1021.16
2019-03-30T00:57:42.779Z,1021.15
2019-03-30T00:58:42.783Z,1021.14
2019-03-30T00:59:42.871Z,1021.10
2019-03-30T01:00:42.899Z,1021.13
2019-03-30T01:01:42.969Z,1021.11
2019-03-30T01:02:43.023Z,1021.11
2019-03-30T01:03:43.415Z,1021.11
2019-03-30T01:04:43.143Z,1021.09
2019-03-30T01:05:43.208Z,1021.09
2019-03-30T01:06:43.267Z,1021.07
2019-03-30T01:07:43.335Z,1021.06
2019-03-30T01:08:43.391Z,1021.05
2019-03-30T01:09:43.464Z,1021.03
2019-03-30T01:10:43.516Z,1021.04
2019-03-30T01:11:43.575Z,1020.99
2019-03-30T01:12:43.636Z,1021.00
2019-03-30T01:13:43.705Z,1021.02
2019-03-30T01:14:43.774Z,1021.03
2019-03-30T01:15:43.829Z,1021.00
2019-03-30T01:16:43.885Z,1020.96
2019-03-30T01:17:43.943Z,1021.00
2019-03-30T01:18:44.014Z,1020.99
2019-03-30T01:19:44.168Z,1020.98
2019-03-30T01:20:44.128Z,1021.02
2019-03-30T01:21:44.188Z,1021.01
2019-03-30T01:22:44.252Z,1020.96
2019-03-30T01:23:44.315Z,1020.93
2019-03-30T01:24:44.379Z,1020.92
2019-03-30T01:25:44.448Z,1020.92
2019-03-30T01:26:44.497Z,1020.90
2019-03-30T01:27:44.560Z,1020.88
2019-03-30T01:28:44.625Z,1020.88
2019-03-30T01:29:44.689Z,1020.85
2019-03-30T01:30:44.748Z,1020.88
2019-03-30T01:31:44.804Z,1020.87
2019-03-30T01:32:44.868Z,1020.86
2019-03-30T01:33:44.929Z,1020.87
2019-03-30T01:34:44.999Z,1020.87
2019-03-30T01:35:45.056Z,1020.82
2019-03-30T01:36:45.135Z,1020.87
2019-03-30T01:37:45.180Z,1020.84
2019-03-30T01:38:45.233Z,1020.83
2019-03-30T01:39:45.297Z,1020.81
2019-03-30T01:40:45.373Z,1020.81
2019-03-30T01:41:45.416Z,1020.83
2019-03-30T01:42:45.477Z,1020.79
2019-03-30T01:43:45.541Z,1020.81
2019-03-30T01:44:45.600Z,1020.79
2019-03-30T01:45:45.668Z,1020.79
2019-03-30T01:46:45.730Z,1020.75
2019-03-30T01:47:45.785Z,1020.75
2019-03-30T01:48:45.848Z,1020.73
2019-03-30T01:49:45.909Z,1020.74
2019-03-30T01:50:45.981Z,1020.71
2019-03-30T01:51:46.045Z,1020.77
2019-03-30T01:52:46.097Z,1020.74
2019-03-30T01:53:46.153Z,1020.71
2019-03-30T01:54:46.213Z,1020.73
2019-03-30T01:55:46.281Z,1020.70
2019-03-30T01:56:46.345Z,1020.68
2019-03-30T01:57:46.399Z,1020.68
2019-03-30T01:58:46.459Z,1020.66
2019-03-30T01:59:46.521Z,1020.67
2019-03-30T02:00:46.581Z,1020.66
2019-03-30T02:01:46.649Z,1020.59
2019-03-30T02:02:46.710Z,1020.61
2019-03-30T02:03:46.766Z,1020.59
2019-03-30T02:04:46.825Z,1020.54
2019-03-30T02:05:46.887Z,1020.57
2019-03-30T02:06:46.958Z,1020.54
2019-03-30T02:07:47.034Z,1020.53
2019-03-30T02:08:47.069Z,1020.54
2019-03-30T02:09:47.137Z,1020.54
2019-03-30T02:10:47.207Z,1020.53
2019-03-30T02:11:47.265Z,1020.54
2019-03-30T02:12:47.314Z,1020.53
2019-03-30T02:13:47.378Z,1020.56
2019-03-30T02:14:47.438Z,1020.52
2019-03-30T02:15:47.502Z,1020.51
2019-03-30T02:16:47.567Z,1020.51
2019-03-30T02:17:47.630Z,1020.50
2019-03-30T02:18:47.682Z,1020.47
2019-03-30T02:19:47.746Z,1020.54
2019-03-30T02:20:47.807Z,1020.51
2019-03-30T02:21:47.874Z,1020.48
2019-03-30T02:22:47.934Z,1020.51
2019-03-30T02:23:47.990Z,1020.47
2019-03-30T02:24:48.050Z,1020.44
2019-03-30T02:25:48.110Z,1020.49
2019-03-30T02:26:48.183Z,1020.50
2019-03-30T02:27:48.235Z,1020.42
2019-03-30T02:28:48.299Z,1020.45
2019-03-30T02:29:48.358Z,1020.39
2019-03-30T02:30:48.432Z,1020.45
2019-03-30T02:31:48.486Z,1020.46
2019-03-30T02:32:48.548Z,1020.43
2019-03-30T02:33:48.605Z,1020.42
2019-03-30T02:34:48.667Z,1020.43
2019-03-30T02:35:48.723Z,1020.43
2019-03-30T02:36:48.792Z,1020.42
2019-03-30T02:37:48.852Z,1020.43
2019-03-30T02:38:48.912Z,1020.42
2019-03-30T02:39:48.971Z,1020.37
2019-03-30T02:40:49.035Z,1020.38
2019-03-30T02:41:49.109Z,1020.42
2019-03-30T02:42:49.151Z,1020.42
2019-03-30T02:43:49.211Z,1020.41
2019-03-30T02:44:49.276Z,1020.40
2019-03-30T02:45:49.340Z,1020.40
2019-03-30T02:46:49.413Z,1020.42
2019-03-30T02:47:49.465Z,1020.40
2019-03-30T02:48:49.602Z,1020.40
2019-03-30T02:49:49.580Z,1020.40
2019-03-30T02:50:50.803Z,1020.37
2019-03-30T02:51:49.709Z,1020.41
2019-03-30T02:52:49.807Z,1020.40
2019-03-30T02:53:49.825Z,1020.39
2019-03-30T02:54:49.899Z,1020.40
2019-03-30T02:55:49.944Z,1020.41
2019-03-30T02:56:50.015Z,1020.38
2019-03-30T02:57:50.079Z,1020.39
2019-03-30T02:58:50.129Z,1020.39
2019-03-30T02:59:50.198Z,1020.41
2019-03-30T03:00:50.249Z,1020.35
2019-03-30T03:01:50.414Z,1020.36
2019-03-30T03:02:50.374Z,1020.35
2019-03-30T03:03:50.433Z,1020.36
2019-03-30T03:04:50.530Z,1020.37
2019-03-30T03:05:50.558Z,1020.32
2019-03-30T03:06:50.625Z,1020.32
2019-03-30T03:07:50.686Z,1020.35
2019-03-30T03:08:50.741Z,1020.33
2019-03-30T03:09:50.804Z,1020.30
2019-03-30T03:10:50.861Z,1020.31
2019-03-30T03:11:50.930Z,1020.31
2019-03-30T03:12:50.991Z,1020.30
2019-03-30T03:13:51.047Z,1020.29
2019-03-30T03:14:51.111Z,1020.29
2019-03-30T03:15:51.166Z,1020.29
2019-03-30T03:16:51.241Z,1020.26
2019-03-30T03:17:51.294Z,1020.29
2019-03-30T03:18:51.350Z,1020.31
2019-03-30T03:19:51.417Z,1020.30
2019-03-30T03:21:06.673Z,1020.29
2019-03-30T03:21:51.538Z,1020.25
2019-03-30T03:22:51.598Z,1020.23
2019-03-30T03:23:51.654Z,1020.26
2019-03-30T03:24:51.725Z,1020.22
2019-03-30T03:25:51.779Z,1020.23
2019-03-30T03:26:51.843Z,1020.24
2019-03-30T03:27:51.907Z,1020.25
2019-03-30T03:28:51.958Z,1020.24
2019-03-30T03:29:52.023Z,1020.25
2019-03-30T03:30:52.078Z,1020.23
2019-03-30T03:31:52.227Z,1020.19
2019-03-30T03:32:52.236Z,1020.21
2019-03-30T03:33:52.263Z,1020.23
2019-03-30T03:34:52.358Z,1020.22
2019-03-30T03:35:52.382Z,1020.15
2019-03-30T03:36:52.451Z,1020.14
2019-03-30T03:37:52.517Z,1020.18
2019-03-30T03:38:52.575Z,1020.18
2019-03-30T03:39:52.633Z,1020.15
2019-03-30T03:40:52.687Z,1020.13
2019-03-30T03:41:52.755Z,1020.13
2019-03-30T03:42:52.820Z,1020.11
2019-03-30T03:43:52.872Z,1020.10
2019-03-30T03:44:52.934Z,1020.10
2019-03-30T03:45:53.001Z,1020.10
2019-03-30T03:46:53.063Z,1020.12
2019-03-30T03:47:53.125Z,1020.12
2019-03-30T03:48:53.178Z,1020.12
2019-03-30T03:49:53.236Z,1020.12
2019-03-30T03:50:53.294Z,1020.13
2019-03-30T03:51:53.371Z,1020.12
2019-03-30T03:52:53.426Z,1020.11
2019-03-30T03:53:53.480Z,1020.10
2019-03-30T03:54:53.545Z,1020.09
2019-03-30T03:55:53.604Z,1020.12
2019-03-30T03:56:53.674Z,1020.05
2019-03-30T03:57:53.728Z,1020.06
2019-03-30T03:58:53.787Z,1020.06
2019-03-30T03:59:53.856Z,1020.03
2019-03-30T04:00:53.905Z,1020.05
2019-03-30T04:01:53.971Z,1020.02
2019-03-30T04:02:54.032Z,1020.01
2019-03-30T04:03:54.089Z,1019.97
2019-03-30T04:04:54.148Z,1020.01
2019-03-30T04:05:54.215Z,1019.99
2019-03-30T04:06:54.271Z,1020.01
2019-03-30T04:07:54.355Z,1019.95
2019-03-30T04:08:54.397Z,1019.95
2019-03-30T04:09:54.457Z,1019.97
2019-03-30T04:10:54.512Z,1019.96
2019-03-30T04:11:54.575Z,1019.92
2019-03-30T04:12:54.650Z,1019.96
2019-03-30T04:13:54.703Z,1019.91
2019-03-30T04:14:54.759Z,1019.94
2019-03-30T04:15:54.831Z,1019.89
2019-03-30T04:16:54.876Z,1019.85
2019-03-30T04:17:54.945Z,1019.91
2019-03-30T04:18:55.005Z,1019.86
2019-03-30T04:19:55.060Z,1019.86
2019-03-30T04:20:55.121Z,1019.87
2019-03-30T04:21:55.182Z,1019.83
2019-03-30T04:22:55.574Z,1019.82
2019-03-30T04:23:55.311Z,1019.83
2019-03-30T04:24:55.360Z,1019.81
2019-03-30T04:25:55.425Z,1019.83
2019-03-30T04:26:55.489Z,1019.78
2019-03-30T04:27:55.550Z,1019.83
2019-03-30T04:28:55.669Z,1019.83
2019-03-30T04:29:55.670Z,1019.86
2019-03-30T04:30:55.730Z,1019.89
2019-03-30T04:31:55.799Z,1019.85
2019-03-30T04:32:55.849Z,1019.82
2019-03-30T04:33:55.932Z,1019.86
2019-03-30T04:34:55.985Z,1019.83
2019-03-30T04:35:56.035Z,1019.81
2019-03-30T04:36:56.098Z,1019.81
2019-03-30T04:37:56.153Z,1019.81
2019-03-30T04:38:56.305Z,1019.84
2019-03-30T04:39:56.273Z,1019.82
2019-03-30T04:40:56.334Z,1019.76
2019-03-30T04:41:56.397Z,1019.78
2019-03-30T04:42:56.458Z,1019.77
2019-03-30T04:43:56.534Z,1019.74
2019-03-30T04:44:56.599Z,1019.71
2019-03-30T04:45:56.638Z,1019.71
2019-03-30T04:46:56.703Z,1019.69
2019-03-30T04:47:56.763Z,1019.68
2019-03-30T04:48:56.830Z,1019.67
2019-03-30T04:49:56.898Z,1019.67
2019-03-30T04:50:56.942Z,1019.69
2019-03-30T04:51:58.111Z,1019.62
2019-03-30T04:52:57.062Z,1019.62
2019-03-30T04:53:57.272Z,1019.63
2019-03-30T04:54:57.198Z,1019.65
2019-03-30T04:55:57.247Z,1019.64
2019-03-30T04:56:57.311Z,1019.66
2019-03-30T04:57:57.708Z,1019.60
2019-03-30T04:58:57.463Z,1019.62
2019-03-30T04:59:57.498Z,1019.60
2019-03-30T05:00:57.550Z,1019.52
2019-03-30T05:01:57.610Z,1019.55
2019-03-30T05:02:57.670Z,1019.55
2019-03-30T05:03:57.735Z,1019.57
2019-03-30T05:04:57.798Z,1019.59
2019-03-30T05:05:57.855Z,1019.58
2019-03-30T05:06:57.915Z,1019.60
2019-03-30T05:07:57.979Z,1019.61
2019-03-30T05:08:58.063Z,1019.56
2019-03-30T05:09:58.110Z,1019.59
2019-03-30T05:10:58.158Z,1019.56
2019-03-30T05:11:58.219Z,1019.57
2019-03-30T05:12:58.279Z,1019.59
2019-03-30T05:13:58.432Z,1019.57
2019-03-30T05:14:58.398Z,1019.61
2019-03-30T05:15:58.463Z,1019.57
2019-03-30T05:16:58.525Z,1019.64
2019-03-30T05:17:58.590Z,1019.65
2019-03-30T05:18:58.656Z,1019.62
2019-03-30T05:19:58.711Z,1019.63
2019-03-30T05:20:58.764Z,1019.65
2019-03-30T05:22:11.537Z,1019.59
2019-03-30T05:22:58.887Z,1019.62
2019-03-30T05:23:58.959Z,1019.57
2019-03-30T05:24:59.015Z,1019.58
2019-03-30T05:25:59.070Z,1019.55
2019-03-30T05:26:59.128Z,1019.58
2019-03-30T05:27:59.187Z,1019.57
2019-03-30T05:28:59.312Z,1019.58
2019-03-30T05:29:59.327Z,1019.51
2019-03-30T05:30:59.372Z,1019.54
2019-03-30T05:31:59.436Z,1019.55
2019-03-30T05:33:05.984Z,1019.55
2019-03-30T05:33:59.564Z,1019.57
2019-03-30T05:34:59.619Z,1019.57
2019-03-30T05:35:59.676Z,1019.55
2019-03-30T05:36:59.739Z,1019.54
2019-03-30T05:38:01.398Z,1019.52
2019-03-30T05:38:59.876Z,1019.52
2019-03-30T05:39:59.924Z,1019.51
2019-03-30T05:40:59.975Z,1019.50
2019-03-30T05:42:00.036Z,1019.52
2019-03-30T05:43:00.100Z,1019.47
2019-03-30T05:44:00.172Z,1019.45
2019-03-30T05:45:00.449Z,1019.46
2019-03-30T05:46:00.282Z,1019.50
2019-03-30T05:47:00.340Z,1019.50
2019-03-30T05:48:00.405Z,1019.47
2019-03-30T05:49:00.485Z,1019.44
2019-03-30T05:50:00.535Z,1019.45
2019-03-30T05:51:00.589Z,1019.42
2019-03-30T05:52:00.704Z,1019.36
2019-03-30T05:53:00.706Z,1019.39
2019-03-30T05:54:00.773Z,1019.38
2019-03-30T05:55:00.833Z,1019.39
2019-03-30T05:56:00.889Z,1019.34
2019-03-30T05:57:00.950Z,1019.32
2019-03-30T05:58:01.009Z,1019.33
2019-03-30T05:59:01.082Z,1019.34
2019-03-30T06:00:01.133Z,1019.38
2019-03-30T06:01:01.194Z,1019.39
2019-03-30T06:02:01.254Z,1019.41
2019-03-30T06:03:01.315Z,1019.39
2019-03-30T06:04:01.382Z,1019.41
2019-03-30T06:05:03.345Z,1019.47
2019-03-30T06:06:01.502Z,1019.48
2019-03-30T06:07:01.559Z,1019.52
2019-03-30T06:08:01.622Z,1019.54
2019-03-30T06:09:01.689Z,1019.51
2019-03-30T06:10:01.751Z,1019.52
2019-03-30T06:11:01.807Z,1019.51
2019-03-30T06:12:01.862Z,1019.52
2019-03-30T06:13:01.927Z,1019.49
2019-03-30T06:14:01.994Z,1019.47
2019-03-30T06:15:02.058Z,1019.48
2019-03-30T06:16:02.115Z,1019.43
2019-03-30T06:17:02.170Z,1019.46
2019-03-30T06:18:02.234Z,1019.46
2019-03-30T06:19:02.308Z,1019.43
2019-03-30T06:20:02.352Z,1019.43
2019-03-30T06:21:02.410Z,1019.41
2019-03-30T06:22:02.475Z,1019.43
2019-03-30T06:23:02.534Z,1019.47
2019-03-30T06:24:02.614Z,1019.45
2019-03-30T06:25:02.669Z,1019.50
2019-03-30T06:26:02.720Z,1019.48
2019-03-30T06:27:02.780Z,1019.49
2019-03-30T06:28:02.849Z,1019.44
2019-03-30T06:29:02.911Z,1019.47
2019-03-30T06:30:02.971Z,1019.47
2019-03-30T06:31:03.023Z,1019.48
2019-03-30T06:32:03.092Z,1019.51
2019-03-30T06:33:03.151Z,1019.49
2019-03-30T06:34:03.251Z,1019.53
2019-03-30T06:35:03.280Z,1019.51
2019-03-30T06:36:03.326Z,1019.50
2019-03-30T06:37:03.391Z,1019.46
2019-03-30T06:38:03.463Z,1019.49
2019-03-30T06:39:03.519Z,1019.49
2019-03-30T06:40:03.583Z,1019.46
2019-03-30T06:41:03.635Z,1019.51
2019-03-30T06:42:03.704Z,1019.53
2019-03-30T06:43:03.762Z,1019.56
2019-03-30T06:44:03.834Z,1019.54
2019-03-30T06:45:03.891Z,1019.52
2019-03-30T06:46:03.944Z,1019.54
2019-03-30T06:47:04.011Z,1019.58
2019-03-30T06:48:04.068Z,1019.57
2019-03-30T06:49:04.224Z,1019.59
2019-03-30T06:50:04.192Z,1019.59
2019-03-30T06:51:04.258Z,1019.55
2019-03-30T06:52:04.312Z,1019.61
2019-03-30T06:53:04.377Z,1019.60
2019-03-30T06:54:04.446Z,1019.65
2019-03-30T06:55:04.504Z,1019.65
2019-03-30T06:56:04.574Z,1019.59
2019-03-30T06:57:04.619Z,1019.63
2019-03-30T06:58:04.688Z,1019.62
2019-03-30T06:59:04.757Z,1019.61
2019-03-30T07:00:04.830Z,1019.60
2019-03-30T07:01:04.869Z,1019.57
2019-03-30T07:02:04.934Z,1019.62
2019-03-30T07:03:04.997Z,1019.64
2019-03-30T07:04:05.067Z,1019.61
2019-03-30T07:05:05.120Z,1019.66
2019-03-30T07:06:05.177Z,1019.63
2019-03-30T07:07:05.240Z,1019.65
2019-03-30T07:08:05.301Z,1019.64
2019-03-30T07:09:05.370Z,1019.64
2019-03-30T07:10:05.435Z,1019.64
2019-03-30T07:11:05.490Z,1019.68
2019-03-30T07:12:05.552Z,1019.70
2019-03-30T07:13:05.614Z,1019.68
2019-03-30T07:14:05.682Z,1019.67
2019-03-30T07:15:05.753Z,1019.66
2019-03-30T07:16:05.807Z,1019.60
2019-03-30T07:17:05.862Z,1019.62
2019-03-30T07:18:05.932Z,1019.60
2019-03-30T07:19:05.997Z,1019.60
2019-03-30T07:20:06.052Z,1019.64
2019-03-30T07:21:06.111Z,1019.62
2019-03-30T07:22:06.171Z,1019.64
2019-03-30T07:23:12.159Z,1019.66
2019-03-30T07:24:06.293Z,1019.70
2019-03-30T07:25:06.369Z,1019.68
2019-03-30T07:26:06.422Z,1019.68
2019-03-30T07:27:06.482Z,1019.66
2019-03-30T07:28:06.550Z,1019.68
2019-03-30T07:29:06.609Z,1019.69
2019-03-30T07:30:06.674Z,1019.66
2019-03-30T07:31:06.742Z,1019.65
2019-03-30T07:32:06.798Z,1019.66
2019-03-30T07:33:06.858Z,1019.64
2019-03-30T07:34:06.918Z,1019.68
2019-03-30T07:35:06.990Z,1020.09
2019-03-30T07:36:07.050Z,1020.71
2019-03-30T07:37:07.106Z,1020.76
2019-03-30T07:38:07.170Z,1020.78
2019-03-30T07:39:07.235Z,1020.79
2019-03-30T07:40:07.298Z,1020.76
2019-03-30T07:41:07.406Z,1020.80
2019-03-30T07:42:07.430Z,1020.89
2019-03-30T07:43:07.549Z,1020.87
2019-03-30T07:44:07.559Z,1020.92
2019-03-30T07:45:07.623Z,1020.87
2019-03-30T07:46:07.695Z,1020.95
2019-03-30T07:47:07.763Z,1021.01
2019-03-30T07:48:07.822Z,1020.66
2019-03-30T07:49:07.891Z,1020.79
2019-03-30T07:50:07.956Z,1021.05
2019-03-30T07:51:08.032Z,1019.86
2019-03-30T07:52:08.098Z,1019.88
2019-03-30T07:53:08.155Z,1020.05
2019-03-30T07:54:08.223Z,1020.85
2019-03-30T07:55:08.291Z,1020.56
2019-03-30T07:56:09.044Z,1020.84
2019-03-30T07:57:16.770Z,1020.47
2019-03-30T07:58:08.518Z,1020.51
2019-03-30T07:59:08.563Z,1021.14
2019-03-30T08:00:08.634Z,1021.30
2019-03-30T08:01:08.703Z,1020.49
2019-03-30T08:02:08.772Z,1020.50
2019-03-30T08:03:08.836Z,1020.99
2019-03-30T08:04:08.906Z,1021.26
2019-03-30T08:05:08.975Z,1021.24
2019-03-30T08:06:09.044Z,1020.92
2019-03-30T08:07:09.116Z,1020.22
2019-03-30T08:08:09.492Z,1019.95
2019-03-30T08:09:09.436Z,1020.35
2019-03-30T08:10:09.603Z,1020.18
2019-03-30T08:11:09.388Z,1020.26
2019-03-30T08:12:09.460Z,1020.21
2019-03-30T08:13:09.520Z,1020.04
2019-03-30T08:14:09.588Z,1019.97
2019-03-30T08:15:09.658Z,1020.24
2019-03-30T08:16:09.733Z,1019.85
2019-03-30T08:17:09.801Z,1019.86
2019-03-30T08:18:09.864Z,1020.19
2019-03-30T08:19:09.928Z,1019.89
2019-03-30T08:20:10.000Z,1019.77
2019-03-30T08:21:10.192Z,1019.77
2019-03-30T08:22:10.132Z,1019.67
2019-03-30T08:23:10.204Z,1019.80
2019-03-30T08:24:10.286Z,1019.89
2019-03-30T08:25:10.340Z,1020.25
2019-03-30T08:26:10.413Z,1020.33
2019-03-30T08:27:10.484Z,1020.44
2019-03-30T08:28:10.547Z,1020.38
2019-03-30T08:29:10.617Z,1020.36
2019-03-30T08:30:10.685Z,1020.46
2019-03-30T08:31:10.759Z,1020.50
2019-03-30T08:32:10.847Z,1020.48
2019-03-30T08:33:10.890Z,1020.50
2019-03-30T08:34:10.967Z,1020.43
2019-03-30T08:35:11.029Z,1020.40
2019-03-30T08:36:11.149Z,1020.45
2019-03-30T08:37:11.174Z,1020.42
2019-03-30T08:38:11.244Z,1020.36
2019-03-30T08:39:11.314Z,1020.42
2019-03-30T08:40:11.390Z,1020.41
2019-03-30T08:41:11.461Z,1020.39
2019-03-30T08:42:11.555Z,1020.37
2019-03-30T08:43:11.613Z,1020.34
2019-03-30T08:44:11.671Z,1020.27
2019-03-30T08:45:11.745Z,1020.28
2019-03-30T08:46:11.818Z,1020.25
2019-03-30T08:47:11.894Z,1020.26
2019-03-30T08:48:11.957Z,1020.22
2019-03-30T08:49:12.030Z,1020.20
2019-03-30T08:50:12.098Z,1020.20
2019-03-30T08:51:12.195Z,1020.25
2019-03-30T08:52:12.254Z,1020.27
2019-03-30T08:53:12.314Z,1020.38
2019-03-30T08:54:12.385Z,1020.38
2019-03-30T08:55:12.458Z,1020.41
2019-03-30T08:56:12.534Z,1020.48
2019-03-30T08:57:12.606Z,1020.60
2019-03-30T08:58:12.678Z,1020.59
2019-03-30T08:59:12.743Z,1020.40
2019-03-30T09:00:12.814Z,1020.20
2019-03-30T09:01:12.891Z,1020.11
2019-03-30T09:02:12.962Z,1020.11
2019-03-30T09:03:13.031Z,1020.07
2019-03-30T09:04:13.101Z,1020.06
2019-03-30T09:05:13.170Z,1020.01
2019-03-30T09:06:13.279Z,1019.99
2019-03-30T09:07:13.309Z,1019.98
2019-03-30T09:08:13.382Z,1020.00
2019-03-30T09:09:13.454Z,1019.97
2019-03-30T09:10:13.527Z,1019.99
2019-03-30T09:11:13.604Z,1020.01
2019-03-30T09:12:13.686Z,1019.92
2019-03-30T09:13:13.741Z,1019.91
2019-03-30T09:14:13.811Z,1019.89
2019-03-30T09:15:13.883Z,1019.86
2019-03-30T09:16:13.960Z,1019.84
2019-03-30T09:17:14.031Z,1019.84
2019-03-30T09:18:14.096Z,1019.80
2019-03-30T09:19:14.159Z,1019.80
2019-03-30T09:20:14.239Z,1019.79
2019-03-30T09:21:14.395Z,1019.80
2019-03-30T09:22:14.380Z,1019.79
2019-03-30T09:23:14.453Z,1019.79
2019-03-30T09:24:14.520Z,1019.78
2019-03-30T09:25:14.596Z,1019.80
2019-03-30T09:26:16.602Z,1019.79
2019-03-30T09:27:14.741Z,1019.75
2019-03-30T09:28:14.807Z,1019.76
2019-03-30T09:29:14.876Z,1019.73
2019-03-30T09:30:14.948Z,1019.70
2019-03-30T09:31:15.024Z,1019.70
2019-03-30T09:32:15.239Z,1019.62
2019-03-30T09:33:15.156Z,1019.65
2019-03-30T09:34:15.231Z,1019.59
2019-03-30T09:35:15.297Z,1019.58
2019-03-30T09:36:15.376Z,1019.60
2019-03-30T09:37:15.445Z,1019.56
2019-03-30T09:38:15.509Z,1019.55
2019-03-30T09:39:15.581Z,1019.55
2019-03-30T09:40:15.650Z,1019.53
2019-03-30T09:41:15.728Z,1019.49
2019-03-30T09:42:15.796Z,1019.51
2019-03-30T09:43:15.866Z,1019.52
2019-03-30T09:44:15.931Z,1019.52
2019-03-30T09:45:16.005Z,1019.52
2019-03-30T09:46:16.084Z,1019.48
2019-03-30T09:47:16.141Z,1019.47
2019-03-30T09:48:16.212Z,1019.40
2019-03-30T09:49:16.281Z,1019.39
2019-03-30T09:50:16.353Z,1019.38
2019-03-30T09:51:16.425Z,1019.41
2019-03-30T09:52:16.501Z,1019.37
2019-03-30T09:53:16.569Z,1019.33
2019-03-30T09:54:23.517Z,1019.35
2019-03-30T09:55:16.709Z,1019.34
2019-03-30T09:56:16.787Z,1019.30
2019-03-30T09:57:16.849Z,1019.28
2019-03-30T09:58:16.913Z,1019.30
2019-03-30T09:59:16.981Z,1019.27
2019-03-30T10:00:17.053Z,1019.27
2019-03-30T10:01:17.214Z,1019.27
2019-03-30T10:02:17.194Z,1019.26
2019-03-30T10:03:17.270Z,1019.28
2019-03-30T10:04:17.334Z,1019.27
2019-03-30T10:05:17.402Z,1019.31
2019-03-30T10:06:17.482Z,1019.27
2019-03-30T10:07:17.557Z,1019.27
2019-03-30T10:08:17.618Z,1019.32
2019-03-30T10:09:17.681Z,1019.22
2019-03-30T10:10:17.756Z,1019.24
2019-03-30T10:11:17.831Z,1019.24
2019-03-30T10:12:17.918Z,1019.23
2019-03-30T10:13:17.963Z,1019.17
2019-03-30T10:14:18.033Z,1019.19
2019-03-30T10:15:18.102Z,1019.18
2019-03-30T10:16:18.184Z,1019.21
2019-03-30T10:17:18.244Z,1019.17
2019-03-30T10:18:18.315Z,1019.11
2019-03-30T10:19:18.382Z,1019.14
2019-03-30T10:20:18.452Z,1019.14
2019-03-30T10:21:18.530Z,1019.09
2019-03-30T10:22:18.599Z,1019.10
2019-03-30T10:23:18.660Z,1019.08
2019-03-30T10:24:18.730Z,1019.09
2019-03-30T10:25:18.799Z,1019.11
2019-03-30T10:26:18.891Z,1019.12
2019-03-30T10:27:18.947Z,1019.11
2019-03-30T10:28:19.011Z,1019.05
2019-03-30T10:29:19.085Z,1019.14
2019-03-30T10:30:19.146Z,1019.09
2019-03-30T10:31:19.239Z,1019.13
2019-03-30T10:32:19.287Z,1019.10
2019-03-30T10:33:19.355Z,1019.08
2019-03-30T10:34:19.427Z,1019.07
2019-03-30T10:35:19.496Z,1019.08
2019-03-30T10:36:19.577Z,1019.07
2019-03-30T10:37:19.762Z,1019.02
2019-03-30T10:38:19.703Z,1019.02
2019-03-30T10:39:19.772Z,1018.97
2019-03-30T10:40:20.962Z,1019.00
2019-03-30T10:41:19.923Z,1018.98
2019-03-30T10:42:19.989Z,1018.97
2019-03-30T10:43:20.050Z,1018.96
2019-03-30T10:44:20.120Z,1018.89
2019-03-30T10:45:20.191Z,1018.86
2019-03-30T10:46:20.531Z,1018.92
2019-03-30T10:47:20.400Z,1018.88
2019-03-30T10:48:20.395Z,1018.95
2019-03-30T10:49:20.468Z,1018.99
2019-03-30T10:50:20.556Z,1018.98
2019-03-30T10:51:20.609Z,1018.96
2019-03-30T10:52:20.676Z,1018.94
2019-03-30T10:53:20.738Z,1018.88
2019-03-30T10:54:20.804Z,1018.91
2019-03-30T10:55:20.876Z,1018.86
2019-03-30T10:56:20.952Z,1018.85
2019-03-30T10:57:21.019Z,1018.81
2019-03-30T10:58:21.080Z,1018.75
2019-03-30T10:59:21.150Z,1018.75
2019-03-30T11:00:21.220Z,1018.79
2019-03-30T11:01:21.293Z,1018.84
2019-03-30T11:02:21.713Z,1018.84
2019-03-30T11:03:21.424Z,1018.80
2019-03-30T11:04:21.493Z,1018.71
2019-03-30T11:05:21.560Z,1018.71
2019-03-30T11:06:21.630Z,1018.78
2019-03-30T11:07:21.697Z,1018.76
2019-03-30T11:08:21.792Z,1018.71
2019-03-30T11:09:21.836Z,1018.71
2019-03-30T11:10:21.904Z,1018.74
2019-03-30T11:11:21.979Z,1018.72
2019-03-30T11:12:22.041Z,1018.77
2019-03-30T11:13:22.188Z,1018.72
2019-03-30T11:14:22.175Z,1018.65
2019-03-30T11:15:22.242Z,1018.63
2019-03-30T11:16:22.310Z,1018.68
2019-03-30T11:17:22.377Z,1018.69
2019-03-30T11:18:22.454Z,1018.67
2019-03-30T11:19:22.519Z,1018.65
2019-03-30T11:20:22.585Z,1018.67
2019-03-30T11:21:22.649Z,1018.67
2019-03-30T11:22:22.717Z,1018.61
2019-03-30T11:23:22.791Z,1018.61
2019-03-30T11:24:22.858Z,1018.65
2019-03-30T11:25:22.918Z,1018.66
2019-03-30T11:26:22.996Z,1018.67
2019-03-30T11:27:23.054Z,1018.59
2019-03-30T11:28:23.314Z,1018.65
2019-03-30T11:29:23.190Z,1018.58
2019-03-30T11:30:23.258Z,1018.61
2019-03-30T11:31:23.327Z,1018.58
2019-03-30T11:32:23.394Z,1018.58
2019-03-30T11:33:23.470Z,1018.57
2019-03-30T11:34:23.541Z,1018.60
2019-03-30T11:35:23.598Z,1018.55
2019-03-30T11:36:23.665Z,1018.57
2019-03-30T11:37:23.733Z,1018.55
2019-03-30T11:38:23.807Z,1018.56
2019-03-30T11:39:23.874Z,1018.53
2019-03-30T11:40:23.933Z,1018.53
2019-03-30T11:41:25.047Z,1018.51
2019-03-30T11:42:24.075Z,1018.58
2019-03-30T11:43:24.238Z,1018.51
2019-03-30T11:44:24.210Z,1018.50
2019-03-30T11:45:24.274Z,1018.45
2019-03-30T11:46:24.345Z,1018.37
2019-03-30T11:47:24.410Z,1018.42
2019-03-30T11:48:24.487Z,1018.37
2019-03-30T11:49:24.555Z,1018.37
2019-03-30T11:50:24.617Z,1018.38
2019-03-30T11:51:24.679Z,1018.39
2019-03-30T11:52:24.743Z,1018.36
2019-03-30T11:53:24.824Z,1018.39
2019-03-30T11:54:24.901Z,1018.45
2019-03-30T11:55:24.955Z,1018.39
2019-03-30T11:56:25.018Z,1018.38
2019-03-30T11:57:25.086Z,1018.32
2019-03-30T11:58:25.194Z,1018.29
2019-03-30T11:59:25.226Z,1018.30
2019-03-30T12:00:25.291Z,1018.32
2019-03-30T12:01:25.360Z,1018.29
2019-03-30T12:02:28.108Z,1018.26
2019-03-30T12:03:25.514Z,1018.36
2019-03-30T12:04:25.571Z,1018.37
2019-03-30T12:05:25.627Z,1018.31
2019-03-30T12:06:25.704Z,1018.31